Weather at Stórikroppur Airport

Public forecast

Using degrees Celsius for public forecast. Weather courtesy of forecast.io.

Closest aviation weather report (METAR) to Stórikroppur Airport

Closest report is Reykjavik Airport, 32.5 nm (60.2 km) SSW. Retrieved 2021/06/20 00:00 UTC (48 minutes ago):

BIRK 200000Z 30014KT 9999 FEW025 BKN044 06/00 Q1015

Closest aviation forecast (TAF) to Stórikroppur Airport

Closest forecast is Reykjavik Airport, 32.5 nm (60.2 km) SSW. Retrieved 2021-06-20 03:06 UTC (0 seconds ago):

TAF BIRK 200104Z 2003/2103 30016KT 9999 BKN025 TX10/2015Z TN05/2004Z BECMG 2023/2101 23010KT -RA BKN015 OVC030